Time;durP1;ratioP1;P1;durP2;ratioP2;P2;SDS_P1;SDS_P2;PMS_P1;PMS_P2;Temp;Humidity;BMP_temperature;BMP_pressure;BME280_temperature;BME280_humidity;BME280_pressure;Samples;Min_cycle;Max_cycle;Signal;HPM_P1;HPM_P2
2023/12/03 00:02:03;;;;;;;4.40;4.10;;;20.30;59.50;;;;;;4997624;28;20831;-83
2023/12/03 00:04:31;;;;;;;3.90;3.50;;;20.30;59.50;;;;;;4981950;28;20481;-84
2023/12/03 00:07:00;;;;;;;5.37;3.57;;;20.30;59.50;;;;;;4992532;28;20458;-84
2023/12/03 00:09:28;;;;;;;6.30;3.90;;;20.30;59.50;;;;;;4985487;28;20984;-83
2023/12/03 00:11:56;;;;;;;3.67;3.37;;;20.30;59.40;;;;;;4991739;28;20505;-83
2023/12/03 00:14:26;;;;;;;3.60;3.30;;;20.30;59.40;;;;;;4992773;28;20430;-84
2023/12/03 00:16:55;;;;;;;6.20;3.23;;;20.30;59.40;;;;;;4993644;28;20472;-83
2023/12/03 00:19:24;;;;;;;4.40;3.83;;;20.20;59.40;;;;;;4987815;28;20494;-84
2023/12/03 00:21:53;;;;;;;3.73;3.43;;;20.20;59.40;;;;;;4988141;28;20609;-86
2023/12/03 00:24:21;;;;;;;4.13;3.63;;;20.20;59.40;;;;;;4992330;28;20433;-84
2023/12/03 00:26:50;;;;;;;5.57;4.00;;;20.20;59.40;;;;;;4990886;28;20495;-86
2023/12/03 00:29:19;;;;;;;3.80;3.50;;;20.20;59.40;;;;;;4989794;28;20461;-85
2023/12/03 00:31:48;;;;;;;3.87;3.57;;;20.20;59.40;;;;;;4992068;28;20449;-84
2023/12/03 00:34:16;;;;;;;4.27;3.90;;;20.20;59.40;;;;;;4991996;28;20933;-83
2023/12/03 00:36:45;;;;;;;3.70;3.40;;;20.10;59.40;;;;;;4987891;28;20847;-83
2023/12/03 00:39:13;;;;;;;6.30;3.60;;;20.10;59.40;;;;;;4982999;28;20467;-83
2023/12/03 00:41:41;;;;;;;3.50;2.97;;;20.10;59.40;;;;;;4991000;28;20462;-83
2023/12/03 00:44:10;;;;;;;4.80;3.77;;;20.10;59.40;;;;;;4992369;28;20434;-83
2023/12/03 00:46:38;;;;;;;3.70;3.40;;;20.10;59.40;;;;;;4986926;28;20467;-86
2023/12/03 00:49:07;;;;;;;3.23;2.93;;;20.10;59.40;;;;;;4973224;28;20486;-85
2023/12/03 00:51:36;;;;;;;4.17;3.77;;;20.10;59.40;;;;;;4987380;28;20449;-84
2023/12/03 00:54:04;;;;;;;3.97;3.67;;;20.10;59.40;;;;;;4992042;28;20437;-83
2023/12/03 00:56:32;;;;;;;4.20;3.73;;;20.10;59.40;;;;;;4991977;28;20476;-83
2023/12/03 00:59:00;;;;;;;4.30;3.37;;;20.00;59.30;;;;;;4990921;28;20871;-84
2023/12/03 01:01:29;;;;;;;3.07;2.87;;;20.00;59.40;;;;;;4997959;28;20473;-84
2023/12/03 01:03:57;;;;;;;4.30;3.47;;;20.00;59.40;;;;;;4985018;28;20886;-83
2023/12/03 01:06:27;;;;;;;3.13;2.93;;;20.00;59.40;;;;;;4978378;28;20455;-84
2023/12/03 01:08:55;;;;;;;3.40;3.10;;;20.00;59.40;;;;;;4972469;28;20454;-83
2023/12/03 01:11:23;;;;;;;4.20;3.40;;;20.00;59.40;;;;;;4981051;28;20477;-84
2023/12/03 01:14:03;;;;;;;3.23;2.93;;;20.00;59.40;;;;;;4993003;28;20453;-84
2023/12/03 01:16:32;;;;;;;3.73;3.43;;;20.00;59.40;;;;;;4993414;28;20477;-83
2023/12/03 01:19:01;;;;;;;3.90;3.60;;;20.00;59.30;;;;;;4998589;28;20457;-85
2023/12/03 01:21:31;;;;;;;4.03;3.70;;;20.00;59.40;;;;;;4990898;28;20434;-92
2023/12/03 01:23:59;;;;;;;3.20;3.00;;;20.00;59.40;;;;;;4981462;28;20911;-86
2023/12/03 01:26:27;;;;;;;3.00;2.80;;;20.00;59.30;;;;;;4987965;28;20435;-83
2023/12/03 01:28:56;;;;;;;3.57;3.27;;;20.00;59.30;;;;;;4988879;28;20521;-83
2023/12/03 01:31:24;;;;;;;3.77;3.47;;;20.00;59.30;;;;;;4991688;28;20461;-83
2023/12/03 01:33:53;;;;;;;6.23;3.13;;;20.00;59.30;;;;;;4990927;28;20479;-84
2023/12/03 01:36:21;;;;;;;3.27;2.97;;;20.00;59.30;;;;;;4990840;28;21226;-88
2023/12/03 01:38:51;;;;;;;3.20;2.90;;;20.00;59.30;;;;;;4990312;28;20485;-87
2023/12/03 01:41:19;;;;;;;3.50;3.20;;;20.00;59.30;;;;;;4986393;28;20462;-83
2023/12/03 01:43:48;;;;;;;2.90;2.60;;;20.00;59.30;;;;;;4991480;28;20802;-83
2023/12/03 01:46:17;;;;;;;3.13;2.83;;;20.00;59.20;;;;;;4985823;28;20455;-83
2023/12/03 01:48:46;;;;;;;4.90;3.37;;;20.00;59.20;;;;;;4990882;28;20942;-83
2023/12/03 01:51:15;;;;;;;4.93;4.57;;;20.00;59.20;;;;;;4991492;28;20456;-84
2023/12/03 01:53:44;;;;;;;3.17;2.97;;;20.00;59.20;;;;;;4992625;28;20438;-83
2023/12/03 01:56:14;;;;;;;3.20;2.97;;;20.00;59.20;;;;;;4990988;28;20520;-84
2023/12/03 01:58:43;;;;;;;3.60;3.20;;;20.00;59.10;;;;;;4989361;28;20475;-83
2023/12/03 02:01:14;;;;;;;3.57;3.27;;;20.00;59.10;;;;;;4990182;28;20486;-84
2023/12/03 02:03:42;;;;;;;3.60;3.30;;;19.90;59.10;;;;;;4988866;28;20482;-84
2023/12/03 02:06:11;;;;;;;3.00;2.80;;;20.00;59.10;;;;;;4997835;28;20464;-87
2023/12/03 02:08:40;;;;;;;3.20;3.00;;;19.90;59.10;;;;;;4991152;28;21111;-84
2023/12/03 02:11:08;;;;;;;3.53;3.23;;;19.90;59.10;;;;;;4990812;28;20493;-83
2023/12/03 02:13:39;;;;;;;3.10;2.90;;;19.90;59.00;;;;;;4996425;28;20496;-83
2023/12/03 02:16:08;;;;;;;3.40;3.10;;;19.90;59.10;;;;;;4994521;28;20450;-84
2023/12/03 02:18:37;;;;;;;2.87;2.67;;;19.90;59.10;;;;;;4984167;28;20479;-83
2023/12/03 02:21:06;;;;;;;3.53;3.23;;;19.90;59.10;;;;;;4988612;28;20450;-84
2023/12/03 02:23:36;;;;;;;3.30;3.00;;;19.90;59.20;;;;;;4983396;28;20466;-83
2023/12/03 02:26:04;;;;;;;3.13;2.83;;;19.90;59.20;;;;;;4991233;28;20466;-84
2023/12/03 02:28:32;;;;;;;3.60;3.30;;;19.90;59.30;;;;;;4991633;28;20489;-84
2023/12/03 02:31:01;;;;;;;3.27;3.07;;;19.90;59.30;;;;;;4994166;28;20461;-84
2023/12/03 02:33:29;;;;;;;3.30;2.90;;;19.80;59.40;;;;;;5000722;28;20483;-83
2023/12/03 02:35:57;;;;;;;3.33;3.03;;;19.80;59.40;;;;;;4998925;28;20462;-83
2023/12/03 02:38:26;;;;;;;3.23;2.93;;;19.80;59.50;;;;;;4994702;28;20516;-84
2023/12/03 02:40:58;;;;;;;2.83;2.63;;;19.80;59.50;;;;;;4994498;28;20578;-83
2023/12/03 02:43:26;;;;;;;2.87;2.67;;;19.80;59.50;;;;;;4991288;28;20463;-86
2023/12/03 02:45:54;;;;;;;2.93;2.73;;;19.80;59.50;;;;;;4987288;28;20454;-87
2023/12/03 02:48:22;;;;;;;2.50;2.30;;;19.70;59.60;;;;;;4985666;28;20477;-84
2023/12/03 02:50:51;;;;;;;3.13;2.83;;;19.70;59.60;;;;;;4991407;28;20886;-83
2023/12/03 02:53:19;;;;;;;2.90;2.70;;;19.70;59.60;;;;;;4993339;28;20454;-83
2023/12/03 02:55:47;;;;;;;2.97;2.77;;;19.70;59.60;;;;;;4994604;28;20458;-84
2023/12/03 02:58:17;;;;;;;2.77;2.57;;;19.70;59.60;;;;;;5013473;28;20871;-86
2023/12/03 03:00:45;;;;;;;4.60;4.10;;;19.70;59.60;;;;;;5011456;28;20453;-84
2023/12/03 03:03:13;;;;;;;2.80;2.60;;;19.70;59.70;;;;;;4974702;28;20510;-83
2023/12/03 03:05:42;;;;;;;3.73;2.67;;;19.60;59.70;;;;;;4976536;28;20472;-84
2023/12/03 03:08:10;;;;;;;3.43;3.13;;;19.60;59.70;;;;;;4986848;28;20485;-84
2023/12/03 03:10:38;;;;;;;2.90;2.70;;;19.60;59.70;;;;;;4994295;28;20504;-83
2023/12/03 03:13:07;;;;;;;2.60;2.40;;;19.60;59.70;;;;;;5014137;28;20434;-84
2023/12/03 03:15:37;;;;;;;3.13;2.70;;;19.60;59.70;;;;;;4995193;28;20446;-84
2023/12/03 03:18:05;;;;;;;2.60;2.40;;;19.60;59.70;;;;;;4993933;28;20478;-84
2023/12/03 03:20:34;;;;;;;3.20;2.90;;;19.60;59.70;;;;;;4993032;28;20850;-84
2023/12/03 03:23:03;;;;;;;3.10;2.80;;;19.60;59.70;;;;;;4989596;28;20463;-84
2023/12/03 03:25:31;;;;;;;2.50;2.30;;;19.60;59.70;;;;;;4988970;28;20801;-83
2023/12/03 03:27:59;;;;;;;3.03;2.83;;;19.60;59.60;;;;;;4993940;28;20508;-83
2023/12/03 03:30:27;;;;;;;3.23;2.97;;;19.60;59.60;;;;;;4994784;28;20481;-86
2023/12/03 03:32:57;;;;;;;2.80;2.60;;;19.60;59.70;;;;;;4993778;28;20522;-84
2023/12/03 03:35:25;;;;;;;2.57;2.37;;;19.50;59.70;;;;;;4997309;28;20516;-84
2023/12/03 03:37:53;;;;;;;3.23;3.00;;;19.50;59.60;;;;;;4993744;28;20422;-85
2023/12/03 03:40:21;;;;;;;2.43;2.23;;;19.50;59.60;;;;;;4993344;28;20457;-84
2023/12/03 03:42:50;;;;;;;3.57;3.27;;;19.50;59.60;;;;;;4986344;28;20493;-83
2023/12/03 03:45:18;;;;;;;3.10;2.80;;;19.50;59.60;;;;;;4978751;28;20450;-83
2023/12/03 03:47:46;;;;;;;2.47;2.27;;;19.50;59.60;;;;;;4987673;28;20462;-83
2023/12/03 03:50:16;;;;;;;3.60;2.90;;;19.50;59.60;;;;;;4991165;28;20478;-83
2023/12/03 03:52:44;;;;;;;2.90;2.70;;;19.50;59.60;;;;;;4992376;28;21020;-83
2023/12/03 03:55:12;;;;;;;2.80;2.60;;;19.50;59.60;;;;;;4996082;28;20446;-84
2023/12/03 03:57:40;;;;;;;3.10;2.90;;;19.50;59.60;;;;;;4992358;28;21193;-89
2023/12/03 04:00:10;;;;;;;2.73;2.53;;;19.50;59.60;;;;;;4991797;28;20473;-83
2023/12/03 04:02:39;;;;;;;3.20;2.90;;;19.50;59.50;;;;;;4992428;28;20454;-83
2023/12/03 04:05:08;;;;;;;2.60;2.40;;;19.50;59.50;;;;;;4990492;28;20458;-85
2023/12/03 04:07:38;;;;;;;2.97;2.77;;;19.50;59.50;;;;;;4977925;28;20459;-83
2023/12/03 04:10:07;;;;;;;2.60;2.40;;;19.50;59.50;;;;;;4973541;28;20994;-83
2023/12/03 04:12:35;;;;;;;2.63;2.53;;;19.50;59.50;;;;;;5004607;28;20433;-84
2023/12/03 04:15:05;;;;;;;3.23;2.50;;;19.50;59.50;;;;;;5002718;28;20557;-83
2023/12/03 04:17:34;;;;;;;3.17;2.97;;;19.40;59.50;;;;;;4991800;28;20447;-89
2023/12/03 04:20:04;;;;;;;2.90;2.50;;;19.40;59.40;;;;;;4993095;28;20470;-84
2023/12/03 04:22:32;;;;;;;3.30;3.00;;;19.40;59.40;;;;;;4990874;28;20816;-83
2023/12/03 04:25:02;;;;;;;3.07;2.87;;;19.40;59.50;;;;;;4989669;28;20552;-84
2023/12/03 04:27:31;;;;;;;2.80;2.47;;;19.40;59.50;;;;;;5006627;28;20459;-86
2023/12/03 04:29:59;;;;;;;2.50;2.30;;;19.40;59.40;;;;;;4991008;28;20528;-83
2023/12/03 04:32:28;;;;;;;2.60;2.40;;;19.40;59.40;;;;;;4992204;28;20438;-83
2023/12/03 04:34:55;;;;;;;2.70;2.50;;;19.40;59.40;;;;;;4997412;28;20520;-84
2023/12/03 04:37:23;;;;;;;3.53;3.23;;;19.40;59.40;;;;;;4991739;28;20450;-83
2023/12/03 04:39:51;;;;;;;2.80;2.60;;;19.40;59.40;;;;;;4992640;28;20481;-84
2023/12/03 04:42:21;;;;;;;2.87;2.67;;;19.40;59.30;;;;;;4980749;28;20459;-83
2023/12/03 04:44:49;;;;;;;2.80;2.60;;;19.40;59.30;;;;;;4991774;28;20512;-83
2023/12/03 04:47:17;;;;;;;3.20;2.57;;;19.40;59.40;;;;;;4991624;28;20458;-84
2023/12/03 04:49:46;;;;;;;2.80;2.60;;;19.40;59.30;;;;;;4982174;28;20540;-83
2023/12/03 04:52:14;;;;;;;2.60;2.40;;;19.40;59.30;;;;;;4985863;28;20861;-84
2023/12/03 04:54:42;;;;;;;2.43;2.30;;;19.40;59.30;;;;;;4995058;28;20437;-84
2023/12/03 04:57:10;;;;;;;2.70;2.50;;;19.40;59.30;;;;;;4997757;28;20536;-88
2023/12/03 04:59:40;;;;;;;2.90;2.70;;;19.30;59.20;;;;;;4992206;28;20886;-83
2023/12/03 05:02:08;;;;;;;3.03;2.83;;;19.30;59.30;;;;;;4983025;28;21050;-83
2023/12/03 05:04:36;;;;;;;3.07;2.87;;;19.30;59.30;;;;;;4992417;28;21048;-87
2023/12/03 05:07:05;;;;;;;2.47;2.27;;;19.30;59.30;;;;;;4991903;28;20442;-84
2023/12/03 05:09:33;;;;;;;2.60;2.40;;;19.40;59.30;;;;;;4980474;28;20462;-83
2023/12/03 05:12:01;;;;;;;2.83;2.63;;;19.40;59.20;;;;;;4999574;28;20450;-86
2023/12/03 05:14:29;;;;;;;2.63;2.43;;;19.40;59.20;;;;;;4991956;28;20434;-89
2023/12/03 05:16:59;;;;;;;2.87;2.67;;;19.40;59.10;;;;;;4991233;28;20532;-84
2023/12/03 05:19:27;;;;;;;2.30;2.20;;;19.40;59.00;;;;;;4991944;28;20469;-83
2023/12/03 05:21:55;;;;;;;2.70;2.50;;;19.50;58.90;;;;;;4994752;28;20469;-88
2023/12/03 05:24:24;;;;;;;3.13;2.83;;;19.50;58.80;;;;;;4990552;28;20457;-84
2023/12/03 05:26:52;;;;;;;2.83;2.63;;;19.50;58.70;;;;;;4988649;28;20549;-83
2023/12/03 05:29:21;;;;;;;3.07;2.87;;;19.50;58.60;;;;;;4983170;28;20467;-84
2023/12/03 05:31:50;;;;;;;2.70;2.50;;;19.60;58.50;;;;;;4975200;28;20957;-84
2023/12/03 05:34:19;;;;;;;2.67;2.40;;;19.60;58.40;;;;;;4972585;28;20448;-83
2023/12/03 05:36:47;;;;;;;3.10;2.90;;;19.60;58.20;;;;;;4995340;28;20448;-83
2023/12/03 05:39:19;;;;;;;2.57;2.37;;;19.60;58.10;;;;;;4992899;28;20473;-84
2023/12/03 05:41:47;;;;;;;2.53;2.33;;;19.70;58.10;;;;;;5003103;28;20461;-83
2023/12/03 05:44:15;;;;;;;2.27;2.17;;;19.70;58.10;;;;;;4991764;28;20458;-83
2023/12/03 05:46:44;;;;;;;3.70;3.40;;;19.70;58.10;;;;;;4987488;28;20438;-83
2023/12/03 05:49:12;;;;;;;2.57;2.37;;;19.70;58.10;;;;;;4984109;28;20468;-85
2023/12/03 05:51:44;;;;;;;2.23;2.13;;;19.70;58.10;;;;;;4980965;28;20904;-84
2023/12/03 05:54:13;;;;;;;2.30;2.10;;;19.80;58.10;;;;;;4980666;28;20429;-84
2023/12/03 05:56:41;;;;;;;2.70;2.50;;;19.80;58.10;;;;;;4982065;28;20604;-84
2023/12/03 05:59:12;;;;;;;2.80;2.37;;;19.80;58.20;;;;;;4979924;28;20439;-84
2023/12/03 06:01:40;;;;;;;2.70;2.50;;;19.90;58.20;;;;;;4983429;28;20493;-87
2023/12/03 06:04:08;;;;;;;2.50;2.30;;;19.90;58.20;;;;;;5000978;28;21021;-84
2023/12/03 06:06:37;;;;;;;2.27;2.10;;;19.90;58.10;;;;;;4988443;28;20460;-84
2023/12/03 06:09:09;;;;;;;2.57;2.37;;;20.00;58.10;;;;;;4995239;28;20494;-84
2023/12/03 06:11:37;;;;;;;2.13;2.03;;;20.00;58.10;;;;;;5000780;28;21031;-83
2023/12/03 06:14:06;;;;;;;2.40;2.23;;;20.00;57.90;;;;;;5014325;28;20433;-87
2023/12/03 06:16:34;;;;;;;2.83;2.17;;;20.00;57.90;;;;;;4998125;28;20457;-84
2023/12/03 06:19:02;;;;;;;2.27;2.13;;;20.10;57.80;;;;;;4995026;28;20457;-83
2023/12/03 06:21:30;;;;;;;2.50;2.30;;;20.10;57.70;;;;;;4985243;28;20465;-87
2023/12/03 06:23:59;;;;;;;2.37;1.97;;;20.10;57.70;;;;;;4978619;28;20468;-84
2023/12/03 06:26:28;;;;;;;2.27;2.17;;;20.10;57.60;;;;;;4994173;28;20447;-84
2023/12/03 06:28:56;;;;;;;2.20;2.10;;;20.10;57.60;;;;;;5001955;28;20555;-83
2023/12/03 06:31:25;;;;;;;2.40;2.20;;;20.10;57.60;;;;;;4994840;28;20524;-84
2023/12/03 06:33:53;;;;;;;2.10;2.00;;;20.10;57.50;;;;;;4994806;28;20921;-84
2023/12/03 06:36:22;;;;;;;2.33;2.10;;;20.10;57.50;;;;;;5000453;28;20441;-84
2023/12/03 06:38:50;;;;;;;2.10;2.00;;;20.10;57.40;;;;;;4994481;28;20500;-86
2023/12/03 06:41:20;;;;;;;2.23;2.13;;;20.10;57.40;;;;;;4978248;28;20494;-85
2023/12/03 06:43:49;;;;;;;2.20;2.10;;;20.10;57.40;;;;;;4994169;28;20516;-83
2023/12/03 06:46:17;;;;;;;2.40;2.30;;;20.10;57.40;;;;;;4993645;28;20441;-85
2023/12/03 06:48:46;;;;;;;2.50;2.30;;;20.10;57.30;;;;;;4987147;28;20530;-83
2023/12/03 06:51:14;;;;;;;2.23;2.13;;;20.10;57.30;;;;;;4981546;28;20557;-84
2023/12/03 06:53:42;;;;;;;2.80;2.60;;;20.10;57.20;;;;;;4981246;28;20485;-85
2023/12/03 06:56:11;;;;;;;1.80;1.70;;;20.10;57.20;;;;;;5000631;28;20449;-84
2023/12/03 06:58:40;;;;;;;1.97;1.87;;;20.10;57.20;;;;;;5008723;28;20438;-83
2023/12/03 07:01:12;;;;;;;2.07;1.97;;;20.10;57.10;;;;;;4993306;28;20474;-83
2023/12/03 07:03:41;;;;;;;2.23;2.03;;;20.10;57.10;;;;;;4993152;28;20486;-84
2023/12/03 07:06:10;;;;;;;2.17;1.97;;;20.10;57.10;;;;;;5002311;28;20430;-84
2023/12/03 07:08:38;;;;;;;2.20;2.10;;;20.10;57.10;;;;;;4989315;28;20457;-83
2023/12/03 07:11:07;;;;;;;2.53;2.33;;;20.10;57.00;;;;;;4988145;28;20576;-83
2023/12/03 07:13:35;;;;;;;2.00;1.90;;;20.10;57.00;;;;;;4990802;28;20855;-83
2023/12/03 07:16:04;;;;;;;2.10;1.90;;;20.10;57.00;;;;;;4996831;28;20455;-84
2023/12/03 07:18:33;;;;;;;2.23;1.90;;;20.10;57.00;;;;;;4993598;28;20536;-83
2023/12/03 07:21:01;;;;;;;2.73;2.50;;;20.10;57.10;;;;;;5006613;28;20509;-84
2023/12/03 07:23:30;;;;;;;2.13;2.03;;;20.10;57.10;;;;;;5013279;28;20519;-84
2023/12/03 07:25:58;;;;;;;2.50;2.30;;;20.10;57.10;;;;;;4995452;28;20515;-91
2023/12/03 07:28:26;;;;;;;2.00;1.90;;;20.10;57.10;;;;;;4979021;28;21009;-84
2023/12/03 07:30:55;;;;;;;1.90;1.80;;;20.10;57.10;;;;;;4976451;28;21024;-84
2023/12/03 07:33:23;;;;;;;2.00;1.90;;;20.10;57.00;;;;;;4995652;28;20465;-84
2023/12/03 07:35:53;;;;;;;2.00;1.90;;;20.10;57.00;;;;;;5007217;28;20446;-88
2023/12/03 07:38:21;;;;;;;2.23;2.03;;;20.10;56.90;;;;;;4992674;28;20439;-84
2023/12/03 07:40:49;;;;;;;1.60;1.50;;;20.20;56.80;;;;;;4995152;28;20587;-83
2023/12/03 07:43:17;;;;;;;2.57;2.37;;;20.20;56.80;;;;;;5013487;28;20433;-83
2023/12/03 07:45:45;;;;;;;2.40;2.20;;;20.20;56.80;;;;;;4979844;28;20463;-84
2023/12/03 07:48:14;;;;;;;2.50;2.30;;;20.20;56.80;;;;;;4973996;28;20477;-83
2023/12/03 07:50:42;;;;;;;2.13;2.00;;;20.20;56.70;;;;;;4975117;28;20831;-83
2023/12/03 07:53:12;;;;;;;1.70;1.60;;;20.20;56.70;;;;;;4985377;28;20815;-84
2023/12/03 07:55:40;;;;;;;2.60;2.40;;;20.20;56.70;;;;;;4979951;28;20520;-83
2023/12/03 07:58:09;;;;;;;2.30;2.10;;;20.20;56.60;;;;;;4992462;28;20881;-84
2023/12/03 08:00:38;;;;;;;2.20;2.00;;;20.20;56.70;;;;;;5006638;28;20473;-83
2023/12/03 08:03:06;;;;;;;2.00;1.90;;;20.20;56.70;;;;;;4992910;28;21197;-84
2023/12/03 08:05:34;;;;;;;2.30;2.10;;;20.20;56.60;;;;;;4991802;28;20451;-86
2023/12/03 08:08:02;;;;;;;2.10;2.00;;;20.20;56.70;;;;;;4992629;28;20982;-86
2023/12/03 08:10:32;;;;;;;2.00;1.90;;;20.20;56.70;;;;;;4997500;28;20525;-84
2023/12/03 08:13:00;;;;;;;2.07;1.97;;;20.20;56.60;;;;;;4981753;28;20862;-85
2023/12/03 08:15:28;;;;;;;2.70;2.10;;;20.20;56.60;;;;;;4987962;28;20486;-87
2023/12/03 08:17:57;;;;;;;2.97;2.23;;;20.20;56.60;;;;;;4973643;28;20443;-83
2023/12/03 08:20:25;;;;;;;2.80;2.60;;;20.20;56.60;;;;;;4973257;28;20435;-84
2023/12/03 08:22:53;;;;;;;1.90;1.80;;;20.20;56.70;;;;;;4973203;28;20501;-84
2023/12/03 08:25:22;;;;;;;3.50;2.43;;;20.20;56.70;;;;;;4973602;28;20431;-85
2023/12/03 08:27:51;;;;;;;2.40;2.20;;;20.20;56.80;;;;;;4989338;28;20553;-84
2023/12/03 08:30:20;;;;;;;2.20;2.00;;;20.20;56.80;;;;;;4992797;28;20816;-83
2023/12/03 08:32:48;;;;;;;2.13;2.03;;;20.30;56.80;;;;;;5001265;28;20448;-83
2023/12/03 08:35:16;;;;;;;2.27;2.07;;;20.30;56.70;;;;;;4999604;28;20886;-84
2023/12/03 08:37:45;;;;;;;2.30;2.17;;;20.30;56.70;;;;;;5000832;28;20461;-83
2023/12/03 08:40:14;;;;;;;2.97;2.43;;;20.30;56.60;;;;;;5000712;28;20877;-88
2023/12/03 08:42:44;;;;;;;2.43;2.23;;;20.30;56.50;;;;;;5005038;28;20466;-83
2023/12/03 08:45:14;;;;;;;3.87;2.13;;;20.30;56.50;;;;;;4994778;28;20469;-84
2023/12/03 08:47:43;;;;;;;3.53;2.20;;;20.30;56.50;;;;;;4978901;28;20578;-84
2023/12/03 08:50:12;;;;;;;2.50;2.23;;;20.30;56.40;;;;;;4986638;28;20461;-84
2023/12/03 08:52:40;;;;;;;2.00;1.90;;;20.30;56.30;;;;;;4990889;28;20462;-84
2023/12/03 08:55:09;;;;;;;2.40;2.20;;;20.30;56.30;;;;;;4997514;28;20458;-83
2023/12/03 08:57:39;;;;;;;2.50;2.30;;;20.40;56.20;;;;;;4994232;28;20969;-83
2023/12/03 09:00:10;;;;;;;2.60;2.43;;;20.40;56.30;;;;;;4997422;28;20869;-83
2023/12/03 09:02:39;;;;;;;2.70;2.50;;;20.40;56.20;;;;;;4985011;28;21005;-85
2023/12/03 09:05:08;;;;;;;3.60;2.30;;;20.30;56.20;;;;;;4985461;28;20950;-84
2023/12/03 09:07:36;;;;;;;2.60;2.37;;;20.40;56.20;;;;;;4992312;28;20463;-83
2023/12/03 09:10:05;;;;;;;4.60;2.37;;;20.40;56.20;;;;;;4989526;28;20466;-84
2023/12/03 09:12:33;;;;;;;3.00;2.50;;;20.40;56.10;;;;;;4988688;28;20536;-84
2023/12/03 09:15:02;;;;;;;2.60;2.30;;;20.40;56.10;;;;;;4995434;28;20461;-85
2023/12/03 09:17:31;;;;;;;3.13;2.40;;;20.40;56.10;;;;;;4990774;28;20452;-83
2023/12/03 09:20:01;;;;;;;2.60;2.27;;;20.40;56.10;;;;;;4995141;28;20542;-84
2023/12/03 09:22:30;;;;;;;2.73;2.50;;;20.40;56.10;;;;;;4990567;28;20481;-84
2023/12/03 09:24:59;;;;;;;2.33;2.13;;;20.40;56.20;;;;;;4991668;28;20468;-84
2023/12/03 09:27:27;;;;;;;4.27;2.77;;;20.40;56.20;;;;;;4997582;28;20445;-88
2023/12/03 09:29:56;;;;;;;3.27;2.97;;;20.40;56.30;;;;;;4995777;28;20979;-86
2023/12/03 09:32:24;;;;;;;2.53;2.33;;;20.40;56.30;;;;;;4984752;28;20450;-84
2023/12/03 09:34:52;;;;;;;2.47;2.27;;;20.40;56.50;;;;;;4990732;28;20990;-86
2023/12/03 09:37:22;;;;;;;2.63;2.40;;;20.40;56.50;;;;;;4990246;28;20460;-84
2023/12/03 09:39:50;;;;;;;2.20;2.00;;;20.40;56.50;;;;;;4987961;28;20458;-85
2023/12/03 09:42:19;;;;;;;2.43;2.23;;;20.50;56.50;;;;;;4987709;28;20566;-84
2023/12/03 09:44:55;;;;;;;2.53;2.33;;;20.50;56.50;;;;;;4993196;28;20966;-84
2023/12/03 09:47:23;;;;;;;2.37;2.17;;;20.60;56.40;;;;;;4992141;28;20457;-84
2023/12/03 09:49:55;;;;;;;3.33;2.60;;;20.60;56.30;;;;;;4987924;28;20486;-83
2023/12/03 09:52:27;;;;;;;2.27;2.07;;;20.60;56.30;;;;;;4992885;28;20450;-85
2023/12/03 09:54:58;;;;;;;2.40;2.30;;;20.70;56.20;;;;;;4985380;28;20470;-83
2023/12/03 09:57:27;;;;;;;6.90;3.33;;;20.70;56.20;;;;;;4982976;28;20974;-84
2023/12/03 09:59:58;;;;;;;2.50;2.30;;;20.80;55.70;;;;;;4988787;28;20492;-84
2023/12/03 10:02:29;;;;;;;2.60;2.40;;;20.80;55.30;;;;;;4993566;28;21022;-84
2023/12/03 10:04:58;;;;;;;2.90;2.63;;;20.80;55.30;;;;;;4992352;28;20833;-82
2023/12/03 10:07:29;;;;;;;4.13;2.67;;;20.90;54.70;;;;;;4993036;28;20460;-83
2023/12/03 10:09:59;;;;;;;3.53;3.23;;;20.90;54.90;;;;;;4989059;28;20486;-85
2023/12/03 10:12:36;;;;;;;2.97;2.50;;;21.00;54.60;;;;;;4989907;28;20541;-84
2023/12/03 10:15:05;;;;;;;4.83;2.37;;;21.00;54.70;;;;;;4985874;28;20475;-87
2023/12/03 10:17:34;;;;;;;4.47;3.00;;;21.10;54.60;;;;;;4991424;28;20712;-86
2023/12/03 10:20:27;;;;;;;4.60;2.70;;;21.20;54.70;;;;;;4991474;28;20467;-82
2023/12/03 10:23:00;;;;;;;3.00;2.50;;;21.30;54.60;;;;;;4984470;28;20496;-83
2023/12/03 10:25:30;;;;;;;3.90;2.87;;;21.40;54.90;;;;;;4996450;28;20481;-85
2023/12/03 10:28:01;;;;;;;3.47;2.20;;;21.40;55.10;;;;;;4996096;28;20440;-82
2023/12/03 10:30:30;;;;;;;4.70;2.90;;;21.50;55.00;;;;;;5002568;28;20451;-88
2023/12/03 10:32:58;;;;;;;3.27;2.97;;;21.60;54.50;;;;;;4988420;28;20472;-84
2023/12/03 10:35:28;;;;;;;2.73;2.30;;;21.70;54.30;;;;;;4984901;28;20946;-85
2023/12/03 10:37:58;;;;;;;3.80;3.17;;;21.80;54.20;;;;;;4988505;28;20451;-83
2023/12/03 10:40:26;;;;;;;3.10;2.13;;;22.00;54.30;;;;;;4980001;28;20470;-83
2023/12/03 10:42:54;;;;;;;2.53;2.33;;;22.10;54.10;;;;;;4993838;28;20572;-86
2023/12/03 10:45:23;;;;;;;3.97;2.80;;;22.20;53.70;;;;;;4991190;28;20476;-84
2023/12/03 10:47:53;;;;;;;3.67;2.33;;;22.30;54.00;;;;;;4987157;28;20482;-84
2023/12/03 10:50:22;;;;;;;3.30;3.00;;;22.40;53.70;;;;;;4985541;28;20550;-84
2023/12/03 10:52:51;;;;;;;3.10;2.80;;;22.50;53.30;;;;;;4988922;28;20459;-84
2023/12/03 10:55:21;;;;;;;3.70;2.90;;;22.50;53.30;;;;;;4989390;28;20465;-82
2023/12/03 10:57:59;;;;;;;5.87;3.83;;;22.60;54.00;;;;;;4978816;28;20442;-82
2023/12/03 11:00:36;;;;;;;5.23;3.47;;;22.70;54.80;;;;;;4989117;28;20450;-86
2023/12/03 11:03:14;;;;;;;10.23;3.70;;;22.70;54.80;;;;;;4990665;28;20587;-85
2023/12/03 11:05:51;;;;;;;5.30;2.97;;;22.80;54.10;;;;;;4993214;28;21016;-83
2023/12/03 11:08:22;;;;;;;4.87;3.67;;;22.80;54.10;;;;;;4992983;28;20851;-83
2023/12/03 11:10:53;;;;;;;5.80;3.87;;;22.90;54.40;;;;;;4993079;28;20533;-84
2023/12/03 11:13:23;;;;;;;9.23;4.73;;;22.90;55.20;;;;;;4986108;28;20457;-83
2023/12/03 11:16:05;;;;;;;7.00;4.27;;;22.90;54.50;;;;;;4991799;28;20954;-84
2023/12/03 11:18:36;;;;;;;8.00;3.97;;;22.90;54.20;;;;;;4993224;28;20474;-83
2023/12/03 11:21:15;;;;;;;11.40;4.50;;;22.90;53.60;;;;;;4991126;28;20465;-84
2023/12/03 11:24:11;;;;;;;6.40;3.83;;;22.90;53.30;;;;;;4993198;28;20482;-83
2023/12/03 11:26:42;;;;;;;3.87;3.53;;;22.90;53.40;;;;;;4983930;28;20474;-83
2023/12/03 11:29:11;;;;;;;7.90;3.97;;;23.00;54.40;;;;;;4991694;28;20817;-87
2023/12/03 11:31:41;;;;;;;5.80;4.17;;;23.00;54.10;;;;;;4996419;28;20457;-83
2023/12/03 11:34:11;;;;;;;10.83;4.60;;;23.00;53.70;;;;;;4996448;28;20490;-84
2023/12/03 11:36:47;;;;;;;3.70;3.27;;;23.10;52.90;;;;;;4993462;28;20463;-83
2023/12/03 11:39:20;;;;;;;3.50;3.20;;;23.10;52.70;;;;;;4992929;28;20445;-82
2023/12/03 11:41:59;;;;;;;6.13;4.17;;;23.10;52.30;;;;;;4989559;28;20458;-81
2023/12/03 11:44:28;;;;;;;6.77;3.70;;;23.10;52.10;;;;;;4983461;28;20455;-81
2023/12/03 11:47:03;;;;;;;5.40;3.30;;;23.10;52.00;;;;;;4996633;28;20977;-81
2023/12/03 11:49:33;;;;;;;4.17;3.67;;;23.20;51.90;;;;;;4989474;28;20458;-82
2023/12/03 11:52:03;;;;;;;5.40;3.30;;;23.20;51.90;;;;;;4986234;28;20565;-87
2023/12/03 11:54:38;;;;;;;4.93;3.27;;;23.20;51.60;;;;;;4983008;28;20462;-82
2023/12/03 11:57:14;;;;;;;3.50;3.20;;;23.20;51.10;;;;;;4983557;28;20454;-83
2023/12/03 11:59:43;;;;;;;3.57;3.27;;;23.20;50.80;;;;;;4991648;28;20469;-82
2023/12/03 12:02:12;;;;;;;4.47;3.70;;;23.20;50.60;;;;;;4996412;28;20509;-83
2023/12/03 12:04:40;;;;;;;3.93;3.63;;;23.20;50.60;;;;;;4993268;28;20520;-86
2023/12/03 12:07:16;;;;;;;4.03;3.70;;;23.20;50.60;;;;;;4992937;28;20953;-82
2023/12/03 12:09:46;;;;;;;3.93;3.53;;;23.20;50.40;;;;;;4996599;28;20806;-82
2023/12/03 12:12:16;;;;;;;3.50;3.20;;;23.20;50.40;;;;;;4989816;28;20548;-84
2023/12/03 12:14:45;;;;;;;4.00;3.70;;;23.20;49.90;;;;;;4990750;28;20470;-83
2023/12/03 12:17:14;;;;;;;3.50;3.20;;;23.20;49.70;;;;;;4986457;28;20555;-82
2023/12/03 12:19:46;;;;;;;3.97;3.67;;;23.20;49.70;;;;;;4988282;28;21901;-82
2023/12/03 12:22:15;;;;;;;3.53;3.30;;;23.20;49.70;;;;;;4981397;28;20467;-83
2023/12/03 12:24:44;;;;;;;7.67;4.00;;;23.20;49.80;;;;;;4985081;28;20478;-82
2023/12/03 12:27:13;;;;;;;3.73;3.30;;;23.20;49.90;;;;;;4995529;28;20461;-85
2023/12/03 12:29:43;;;;;;;6.93;3.70;;;23.20;49.90;;;;;;4997031;28;21017;-82
2023/12/03 12:32:12;;;;;;;5.50;4.17;;;23.20;49.80;;;;;;4989173;28;20447;-83
2023/12/03 12:34:40;;;;;;;4.53;3.30;;;23.20;49.80;;;;;;4990530;28;20594;-83
2023/12/03 12:37:09;;;;;;;8.70;5.80;;;23.20;49.80;;;;;;4985468;28;20517;-82
2023/12/03 12:39:37;;;;;;;4.87;3.87;;;23.20;49.80;;;;;;4989208;28;20487;-82
2023/12/03 12:42:06;;;;;;;4.30;3.30;;;23.30;49.90;;;;;;4982627;28;20485;-83
2023/12/03 12:44:39;;;;;;;4.70;3.57;;;23.30;50.00;;;;;;4983147;28;20485;-83
2023/12/03 12:47:18;;;;;;;7.67;3.60;;;23.30;49.90;;;;;;4992119;28;20957;-82
2023/12/03 12:49:54;;;;;;;3.43;3.17;;;23.30;50.20;;;;;;5001979;28;20514;-82
2023/12/03 12:52:24;;;;;;;4.63;3.37;;;23.30;50.10;;;;;;4988903;28;20458;-81
2023/12/03 12:54:53;;;;;;;3.20;2.90;;;23.30;50.10;;;;;;4988916;28;20949;-82
2023/12/03 12:57:31;;;;;;;4.90;3.60;;;23.30;50.20;;;;;;4988450;28;20465;-81